sensor_id;sensor_type;location;lat;lon;timestamp;temperature;humidity
21928;DHT22;11128;51.096;17.190;2023-02-01T00:00:41;2.70;99.90
21928;DHT22;11128;51.096;17.190;2023-02-01T00:05:42;2.70;99.90
21928;DHT22;11128;51.096;17.190;2023-02-01T00:10:43;2.80;1.00
21928;DHT22;11128;51.096;17.190;2023-02-01T00:15:44;2.70;99.90
21928;DHT22;11128;51.096;17.190;2023-02-01T00:20:46;2.70;1.00
21928;DHT22;11128;51.096;17.190;2023-02-01T00:25:47;2.70;1.00
21928;DHT22;11128;51.096;17.190;2023-02-01T00:30:59;3.30;99.90
21928;DHT22;11128;51.096;17.190;2023-02-01T00:36:03;2.60;1.00
21928;DHT22;11128;51.096;17.190;2023-02-01T00:41:16;2.60;99.90
21928;DHT22;11128;51.096;17.190;2023-02-01T00:46:18;2.70;1.00
21928;DHT22;11128;51.096;17.190;2023-02-01T00:51:22;2.60;1.00
21928;DHT22;11128;51.096;17.190;2023-02-01T00:56:23;2.70;99.90
21928;DHT22;11128;51.096;17.190;2023-02-01T01:01:27;2.90;1.00
21928;DHT22;11128;51.096;17.190;2023-02-01T01:06:31;2.90;1.00
21928;DHT22;11128;51.096;17.190;2023-02-01T01:11:35;3.10;1.00
21928;DHT22;11128;51.096;17.190;2023-02-01T01:16:36;3.00;1.00
21928;DHT22;11128;51.096;17.190;2023-02-01T01:21:38;3.00;99.90
21928;DHT22;11128;51.096;17.190;2023-02-01T01:26:39;3.00;1.00
21928;DHT22;11128;51.096;17.190;2023-02-01T01:31:40;3.10;99.90
21928;DHT22;11128;51.096;17.190;2023-02-01T01:36:41;3.10;1.00
21928;DHT22;11128;51.096;17.190;2023-02-01T01:41:43;3.50;1.00
21928;DHT22;11128;51.096;17.190;2023-02-01T01:46:44;3.10;99.90
21928;DHT22;11128;51.096;17.190;2023-02-01T01:51:55;3.10;99.90
21928;DHT22;11128;51.096;17.190;2023-02-01T01:57:01;3.10;1.00
21928;DHT22;11128;51.096;17.190;2023-02-01T02:02:04;3.50;1.00
21928;DHT22;11128;51.096;17.190;2023-02-01T02:07:11;3.10;1.00
21928;DHT22;11128;51.096;17.190;2023-02-01T02:12:14;3.00;1.00
21928;DHT22;11128;51.096;17.190;2023-02-01T02:23:43;2.90;99.90
21928;DHT22;11128;51.096;17.190;2023-02-01T02:29:07;2.90;1.00
21928;DHT22;11128;51.096;17.190;2023-02-01T02:34:29;2.90;1.00
21928;DHT22;11128;51.096;17.190;2023-02-01T02:50:36;3.10;1.00
21928;DHT22;11128;51.096;17.190;2023-02-01T02:55:56;3.70;1.00
21928;DHT22;11128;51.096;17.190;2023-02-01T03:01:16;3.50;99.90
21928;DHT22;11128;51.096;17.190;2023-02-01T03:06:37;3.30;99.90
21928;DHT22;11128;51.096;17.190;2023-02-01T03:11:39;3.60;99.90
21928;DHT22;11128;51.096;17.190;2023-02-01T03:17:07;3.50;1.00
21928;DHT22;11128;51.096;17.190;2023-02-01T03:22:15;3.50;74.10
21928;DHT22;11128;51.096;17.190;2023-02-01T03:27:31;3.60;99.90
21928;DHT22;11128;51.096;17.190;2023-02-01T03:32:35;3.60;99.90
21928;DHT22;11128;51.096;17.190;2023-02-01T03:43:19;3.50;99.90
21928;DHT22;11128;51.096;17.190;2023-02-01T03:48:23;3.50;99.90
21928;DHT22;11128;51.096;17.190;2023-02-01T03:53:25;3.50;99.90
21928;DHT22;11128;51.096;17.190;2023-02-01T03:58:27;3.50;99.90
21928;DHT22;11128;51.096;17.190;2023-02-01T04:03:29;3.50;99.90
21928;DHT22;11128;51.096;17.190;2023-02-01T04:08:30;3.40;99.90
21928;DHT22;11128;51.096;17.190;2023-02-01T04:13:31;3.40;99.90
21928;DHT22;11128;51.096;17.190;2023-02-01T04:18:32;3.40;99.90
21928;DHT22;11128;51.096;17.190;2023-02-01T04:23:34;3.70;99.90
21928;DHT22;11128;51.096;17.190;2023-02-01T04:28:35;3.30;18.50
21928;DHT22;11128;51.096;17.190;2023-02-01T04:33:36;4.30;1.00
21928;DHT22;11128;51.096;17.190;2023-02-01T04:38:38;3.40;1.00
21928;DHT22;11128;51.096;17.190;2023-02-01T04:43:39;3.30;1.00
21928;DHT22;11128;51.096;17.190;2023-02-01T04:48:40;3.80;1.00
21928;DHT22;11128;51.096;17.190;2023-02-01T04:53:41;4.00;1.00
21928;DHT22;11128;51.096;17.190;2023-02-01T04:58:43;3.40;1.00
21928;DHT22;11128;51.096;17.190;2023-02-01T05:03:44;3.50;1.00
21928;DHT22;11128;51.096;17.190;2023-02-01T05:08:45;3.90;1.00
21928;DHT22;11128;51.096;17.190;2023-02-01T05:13:47;3.50;1.00
21928;DHT22;11128;51.096;17.190;2023-02-01T05:18:51;4.90;99.90
21928;DHT22;11128;51.096;17.190;2023-02-01T05:23:52;4.50;92.70
21928;DHT22;11128;51.096;17.190;2023-02-01T05:29:13;3.70;1.00
21928;DHT22;11128;51.096;17.190;2023-02-01T05:34:14;3.70;1.00
21928;DHT22;11128;51.096;17.190;2023-02-01T05:39:16;3.70;1.00
21928;DHT22;11128;51.096;17.190;2023-02-01T05:44:17;3.70;1.00
21928;DHT22;11128;51.096;17.190;2023-02-01T05:49:18;3.70;1.00
21928;DHT22;11128;51.096;17.190;2023-02-01T05:54:19;3.70;1.00
21928;DHT22;11128;51.096;17.190;2023-02-01T05:59:24;4.30;1.00
21928;DHT22;11128;51.096;17.190;2023-02-01T06:04:25;3.80;1.00
21928;DHT22;11128;51.096;17.190;2023-02-01T06:09:26;3.80;1.00
21928;DHT22;11128;51.096;17.190;2023-02-01T06:14:29;3.80;1.00
21928;DHT22;11128;51.096;17.190;2023-02-01T06:19:31;3.80;1.00
21928;DHT22;11128;51.096;17.190;2023-02-01T06:24:32;4.20;1.00
21928;DHT22;11128;51.096;17.190;2023-02-01T06:29:33;4.10;1.00
21928;DHT22;11128;51.096;17.190;2023-02-01T06:34:34;4.50;1.00
21928;DHT22;11128;51.096;17.190;2023-02-01T06:39:36;4.00;1.00
21928;DHT22;11128;51.096;17.190;2023-02-01T06:49:38;4.00;1.00
21928;DHT22;11128;51.096;17.190;2023-02-01T06:54:41;4.50;1.00
21928;DHT22;11128;51.096;17.190;2023-02-01T06:59:42;4.10;1.00
21928;DHT22;11128;51.096;17.190;2023-02-01T07:04:43;5.00;99.90
21928;DHT22;11128;51.096;17.190;2023-02-01T07:09:45;4.10;1.00
21928;DHT22;11128;51.096;17.190;2023-02-01T07:14:46;4.20;99.90
21928;DHT22;11128;51.096;17.190;2023-02-01T07:19:48;4.20;99.90
21928;DHT22;11128;51.096;17.190;2023-02-01T07:24:49;4.70;99.90
21928;DHT22;11128;51.096;17.190;2023-02-01T07:29:50;4.20;99.90
21928;DHT22;11128;51.096;17.190;2023-02-01T07:34:52;4.20;99.90
21928;DHT22;11128;51.096;17.190;2023-02-01T07:39:53;4.40;99.90
21928;DHT22;11128;51.096;17.190;2023-02-01T07:44:54;4.40;99.90
21928;DHT22;11128;51.096;17.190;2023-02-01T07:49:55;4.30;99.90
21928;DHT22;11128;51.096;17.190;2023-02-01T07:54:57;4.50;99.90
21928;DHT22;11128;51.096;17.190;2023-02-01T07:59:58;4.70;99.90
21928;DHT22;11128;51.096;17.190;2023-02-01T08:05:18;5.10;1.00
21928;DHT22;11128;51.096;17.190;2023-02-01T08:10:19;4.40;1.00
21928;DHT22;11128;51.096;17.190;2023-02-01T08:15:20;4.50;1.00
21928;DHT22;11128;51.096;17.190;2023-02-01T08:20:22;4.80;1.00
21928;DHT22;11128;51.096;17.190;2023-02-01T08:25:24;4.50;1.00
21928;DHT22;11128;51.096;17.190;2023-02-01T08:30:25;4.50;1.00
21928;DHT22;11128;51.096;17.190;2023-02-01T08:35:28;4.50;1.00
21928;DHT22;11128;51.096;17.190;2023-02-01T08:40:30;4.60;1.00
21928;DHT22;11128;51.096;17.190;2023-02-01T08:45:31;5.00;1.00
21928;DHT22;11128;51.096;17.190;2023-02-01T08:50:33;4.70;1.00
21928;DHT22;11128;51.096;17.190;2023-02-01T08:55:34;4.70;1.00
21928;DHT22;11128;51.096;17.190;2023-02-01T09:00:35;4.70;1.00
21928;DHT22;11128;51.096;17.190;2023-02-01T09:05:37;4.80;1.00
21928;DHT22;11128;51.096;17.190;2023-02-01T09:10:38;4.70;1.00
21928;DHT22;11128;51.096;17.190;2023-02-01T09:15:40;4.80;1.00
21928;DHT22;11128;51.096;17.190;2023-02-01T09:20:41;5.10;99.90
21928;DHT22;11128;51.096;17.190;2023-02-01T09:25:42;4.60;1.00
21928;DHT22;11128;51.096;17.190;2023-02-01T09:30:43;5.60;1.00
21928;DHT22;11128;51.096;17.190;2023-02-01T09:35:45;4.80;1.00
21928;DHT22;11128;51.096;17.190;2023-02-01T09:40:46;4.60;1.00
21928;DHT22;11128;51.096;17.190;2023-02-01T09:51:32;4.70;36.00
21928;DHT22;11128;51.096;17.190;2023-02-01T09:56:39;5.00;67.10
21928;DHT22;11128;51.096;17.190;2023-02-01T10:01:42;5.50;3.80
21928;DHT22;11128;51.096;17.190;2023-02-01T10:23:06;5.10;1.00
21928;DHT22;11128;51.096;17.190;2023-02-01T10:28:13;5.00;1.00
21928;DHT22;11128;51.096;17.190;2023-02-01T10:33:30;5.10;1.00
21928;DHT22;11128;51.096;17.190;2023-02-01T10:38:33;5.00;1.00
21928;DHT22;11128;51.096;17.190;2023-02-01T10:43:35;5.00;1.00
21928;DHT22;11128;51.096;17.190;2023-02-01T10:48:37;5.30;1.00
21928;DHT22;11128;51.096;17.190;2023-02-01T10:58:47;5.20;1.00
21928;DHT22;11128;51.096;17.190;2023-02-01T11:04:00;5.00;1.00
21928;DHT22;11128;51.096;17.190;2023-02-01T11:14:17;5.00;1.00
21928;DHT22;11128;51.096;17.190;2023-02-01T11:19:19;5.00;1.00
21928;DHT22;11128;51.096;17.190;2023-02-01T11:24:31;5.00;99.90
21928;DHT22;11128;51.096;17.190;2023-02-01T11:29:40;4.90;1.00
21928;DHT22;11128;51.096;17.190;2023-02-01T11:34:47;5.40;1.00
21928;DHT22;11128;51.096;17.190;2023-02-01T11:40:39;5.50;99.90
21928;DHT22;11128;51.096;17.190;2023-02-01T11:45:29;4.70;1.00
21928;DHT22;11128;51.096;17.190;2023-02-01T11:55:53;4.70;91.60
21928;DHT22;11128;51.096;17.190;2023-02-01T12:01:29;4.70;87.70
21928;DHT22;11128;51.096;17.190;2023-02-01T12:44:02;4.60;99.90
21928;DHT22;11128;51.096;17.190;2023-02-01T12:54:42;4.70;99.90
21928;DHT22;11128;51.096;17.190;2023-02-01T13:05:14;4.60;1.00
21928;DHT22;11128;51.096;17.190;2023-02-01T13:11:07;4.60;1.00
21928;DHT22;11128;51.096;17.190;2023-02-01T13:16:02;4.60;1.00
21928;DHT22;11128;51.096;17.190;2023-02-01T13:21:10;4.60;1.00
21928;DHT22;11128;51.096;17.190;2023-02-01T13:26:13;4.70;1.00
21928;DHT22;11128;51.096;17.190;2023-02-01T13:41:41;4.80;1.00
21928;DHT22;11128;51.096;17.190;2023-02-01T13:46:45;4.70;99.90
21928;DHT22;11128;51.096;17.190;2023-02-01T13:51:51;4.90;1.00
21928;DHT22;11128;51.096;17.190;2023-02-01T13:56:53;4.70;1.00
21928;DHT22;11128;51.096;17.190;2023-02-01T14:01:55;4.70;1.00
21928;DHT22;11128;51.096;17.190;2023-02-01T14:06:56;4.70;1.00
21928;DHT22;11128;51.096;17.190;2023-02-01T14:11:57;4.80;99.90
21928;DHT22;11128;51.096;17.190;2023-02-01T14:22:31;5.10;1.00
21928;DHT22;11128;51.096;17.190;2023-02-01T14:27:27;5.00;1.00
21928;DHT22;11128;51.096;17.190;2023-02-01T14:32:36;4.80;1.00
21928;DHT22;11128;51.096;17.190;2023-02-01T14:37:39;4.60;99.90
21928;DHT22;11128;51.096;17.190;2023-02-01T14:42:50;5.10;99.90
21928;DHT22;11128;51.096;17.190;2023-02-01T15:03:41;5.00;99.90
21928;DHT22;11128;51.096;17.190;2023-02-01T15:08:45;4.60;99.90
21928;DHT22;11128;51.096;17.190;2023-02-01T15:13:51;4.90;1.00
21928;DHT22;11128;51.096;17.190;2023-02-01T15:19:08;5.00;1.00
21928;DHT22;11128;51.096;17.190;2023-02-01T15:24:14;4.50;99.90
21928;DHT22;11128;51.096;17.190;2023-02-01T15:29:16;4.40;1.00
21928;DHT22;11128;51.096;17.190;2023-02-01T15:34:19;5.40;99.90
21928;DHT22;11128;51.096;17.190;2023-02-01T15:39:25;4.50;1.00
21928;DHT22;11128;51.096;17.190;2023-02-01T15:44:41;4.40;1.00
21928;DHT22;11128;51.096;17.190;2023-02-01T15:49:45;5.50;1.00
21928;DHT22;11128;51.096;17.190;2023-02-01T15:54:51;4.40;99.90
21928;DHT22;11128;51.096;17.190;2023-02-01T15:59:53;4.40;99.90
21928;DHT22;11128;51.096;17.190;2023-02-01T16:04:56;4.50;47.50
21928;DHT22;11128;51.096;17.190;2023-02-01T16:09:59;4.40;63.30
21928;DHT22;11128;51.096;17.190;2023-02-01T16:15:07;4.80;25.70
21928;DHT22;11128;51.096;17.190;2023-02-01T16:20:09;4.40;1.00
21928;DHT22;11128;51.096;17.190;2023-02-01T16:25:10;4.40;1.00
21928;DHT22;11128;51.096;17.190;2023-02-01T16:30:12;4.30;1.00
21928;DHT22;11128;51.096;17.190;2023-02-01T16:35:23;4.30;1.00
21928;DHT22;11128;51.096;17.190;2023-02-01T16:40:24;4.20;99.90
21928;DHT22;11128;51.096;17.190;2023-02-01T16:45:26;4.20;1.00
21928;DHT22;11128;51.096;17.190;2023-02-01T16:50:27;4.10;1.00
21928;DHT22;11128;51.096;17.190;2023-02-01T16:55:28;4.00;1.00
21928;DHT22;11128;51.096;17.190;2023-02-01T17:00:30;4.00;1.00
21928;DHT22;11128;51.096;17.190;2023-02-01T17:05:34;3.90;99.90
21928;DHT22;11128;51.096;17.190;2023-02-01T17:10:35;3.80;1.00
21928;DHT22;11128;51.096;17.190;2023-02-01T17:15:37;3.80;1.00
21928;DHT22;11128;51.096;17.190;2023-02-01T17:20:38;3.70;99.90
21928;DHT22;11128;51.096;17.190;2023-02-01T17:25:39;3.70;1.00
21928;DHT22;11128;51.096;17.190;2023-02-01T17:30:41;5.00;1.00
21928;DHT22;11128;51.096;17.190;2023-02-01T17:35:43;3.80;1.00
21928;DHT22;11128;51.096;17.190;2023-02-01T17:40:44;3.80;24.70
21928;DHT22;11128;51.096;17.190;2023-02-01T17:45:54;3.90;28.40
21928;DHT22;11128;51.096;17.190;2023-02-01T17:50:56;3.60;95.50
21928;DHT22;11128;51.096;17.190;2023-02-01T17:56:00;3.60;77.20
21928;DHT22;11128;51.096;17.190;2023-02-01T18:01:01;4.50;1.00
21928;DHT22;11128;51.096;17.190;2023-02-01T18:06:03;3.50;1.00
21928;DHT22;11128;51.096;17.190;2023-02-01T18:11:08;2.80;99.90
21928;DHT22;11128;51.096;17.190;2023-02-01T18:16:25;3.70;1.00
21928;DHT22;11128;51.096;17.190;2023-02-01T18:21:36;3.80;1.00
21928;DHT22;11128;51.096;17.190;2023-02-01T18:26:38;4.00;99.90
21928;DHT22;11128;51.096;17.190;2023-02-01T18:31:47;4.10;1.00
21928;DHT22;11128;51.096;17.190;2023-02-01T18:36:50;4.10;1.00
21928;DHT22;11128;51.096;17.190;2023-02-01T18:41:51;4.40;1.00
21928;DHT22;11128;51.096;17.190;2023-02-01T18:46:52;4.00;1.00
21928;DHT22;11128;51.096;17.190;2023-02-01T18:51:53;4.10;99.90
21928;DHT22;11128;51.096;17.190;2023-02-01T18:56:55;4.00;28.20
21928;DHT22;11128;51.096;17.190;2023-02-01T19:01:56;3.90;2.30
21928;DHT22;11128;51.096;17.190;2023-02-01T19:06:57;3.90;1.00
21928;DHT22;11128;51.096;17.190;2023-02-01T19:11:58;3.80;1.00
21928;DHT22;11128;51.096;17.190;2023-02-01T19:17:00;3.80;99.90
21928;DHT22;11128;51.096;17.190;2023-02-01T19:22:01;4.10;18.60
21928;DHT22;11128;51.096;17.190;2023-02-01T19:27:03;3.90;99.90
21928;DHT22;11128;51.096;17.190;2023-02-01T19:32:05;3.80;61.00
21928;DHT22;11128;51.096;17.190;2023-02-01T19:37:07;3.80;1.00
21928;DHT22;11128;51.096;17.190;2023-02-01T19:42:08;3.90;1.00
21928;DHT22;11128;51.096;17.190;2023-02-01T19:47:10;3.90;90.90
21928;DHT22;11128;51.096;17.190;2023-02-01T19:52:12;4.00;1.00
21928;DHT22;11128;51.096;17.190;2023-02-01T20:02:15;4.10;99.90
21928;DHT22;11128;51.096;17.190;2023-02-01T20:07:16;4.20;1.00
21928;DHT22;11128;51.096;17.190;2023-02-01T20:12:18;4.20;1.00
21928;DHT22;11128;51.096;17.190;2023-02-01T20:17:19;4.20;99.90
21928;DHT22;11128;51.096;17.190;2023-02-01T20:22:21;4.10;85.50
21928;DHT22;11128;51.096;17.190;2023-02-01T20:27:22;4.00;64.60
21928;DHT22;11128;51.096;17.190;2023-02-01T20:32:23;3.90;1.00
21928;DHT22;11128;51.096;17.190;2023-02-01T20:37:26;3.70;99.90
21928;DHT22;11128;51.096;17.190;2023-02-01T20:42:27;3.40;88.00
21928;DHT22;11128;51.096;17.190;2023-02-01T20:47:28;3.20;1.00
21928;DHT22;11128;51.096;17.190;2023-02-01T20:52:29;3.00;1.00
21928;DHT22;11128;51.096;17.190;2023-02-01T20:57:31;2.90;1.00
21928;DHT22;11128;51.096;17.190;2023-02-01T21:02:32;2.80;1.00
21928;DHT22;11128;51.096;17.190;2023-02-01T21:07:33;2.70;1.00
21928;DHT22;11128;51.096;17.190;2023-02-01T21:12:36;2.70;1.00
21928;DHT22;11128;51.096;17.190;2023-02-01T21:17:37;2.60;20.50
21928;DHT22;11128;51.096;17.190;2023-02-01T21:22:40;2.60;99.90
21928;DHT22;11128;51.096;17.190;2023-02-01T21:27:42;2.60;99.90
21928;DHT22;11128;51.096;17.190;2023-02-01T21:32:43;2.60;99.90
21928;DHT22;11128;51.096;17.190;2023-02-01T21:37:44;3.40;99.90
21928;DHT22;11128;51.096;17.190;2023-02-01T21:42:46;2.60;99.90
21928;DHT22;11128;51.096;17.190;2023-02-01T21:47:47;2.60;99.90
21928;DHT22;11128;51.096;17.190;2023-02-01T21:52:49;2.60;99.90
21928;DHT22;11128;51.096;17.190;2023-02-01T21:57:50;2.60;99.90
21928;DHT22;11128;51.096;17.190;2023-02-01T22:02:52;2.60;99.90
21928;DHT22;11128;51.096;17.190;2023-02-01T22:07:53;2.60;99.90
21928;DHT22;11128;51.096;17.190;2023-02-01T22:12:55;2.60;99.90
21928;DHT22;11128;51.096;17.190;2023-02-01T22:17:56;2.60;99.90
21928;DHT22;11128;51.096;17.190;2023-02-01T22:22:57;2.60;99.90
21928;DHT22;11128;51.096;17.190;2023-02-01T22:27:58;2.60;99.90
21928;DHT22;11128;51.096;17.190;2023-02-01T22:33:00;3.30;99.90
21928;DHT22;11128;51.096;17.190;2023-02-01T22:38:01;2.60;99.90
21928;DHT22;11128;51.096;17.190;2023-02-01T22:43:02;2.70;99.90
21928;DHT22;11128;51.096;17.190;2023-02-01T22:48:04;3.40;99.90
21928;DHT22;11128;51.096;17.190;2023-02-01T22:53:05;2.70;99.90
21928;DHT22;11128;51.096;17.190;2023-02-01T22:58:07;2.80;99.90
21928;DHT22;11128;51.096;17.190;2023-02-01T23:03:08;3.80;99.90
21928;DHT22;11128;51.096;17.190;2023-02-01T23:08:09;2.90;99.90
21928;DHT22;11128;51.096;17.190;2023-02-01T23:13:10;3.00;99.90
21928;DHT22;11128;51.096;17.190;2023-02-01T23:18:12;3.00;99.90
21928;DHT22;11128;51.096;17.190;2023-02-01T23:23:13;3.70;99.90
21928;DHT22;11128;51.096;17.190;2023-02-01T23:28:14;3.10;99.90
21928;DHT22;11128;51.096;17.190;2023-02-01T23:33:16;4.30;99.90
21928;DHT22;11128;51.096;17.190;2023-02-01T23:38:17;3.20;99.90
21928;DHT22;11128;51.096;17.190;2023-02-01T23:43:18;3.20;99.90
21928;DHT22;11128;51.096;17.190;2023-02-01T23:48:38;3.20;96.50
21928;DHT22;11128;51.096;17.190;2023-02-01T23:53:40;4.50;13.60
21928;DHT22;11128;51.096;17.190;2023-02-01T23:58:41;3.30;1.00
